Time,TemperatureF,DewpointF,PressureIn,WindDirection,WindDirectionDegrees,WindSpeedMPH,WindSpeedGustMPH,Humidity,HourlyPrecipIn,Conditions,Clouds,dailyrainin,SoftwareType,DateUTC
2017-12-12 00:13:00,43.4,36.3,29.92,WNW,300,2.0,3.0,76,0.00,,SKC,0.00,VWS V14.01,2017-12-12 05:13:00,
2017-12-12 00:18:00,43.2,36.2,29.92,WNW,300,1.0,3.0,76,0.00,,SKC,0.00,VWS V14.01,2017-12-12 05:18:00,
2017-12-12 00:28:00,42.9,36.2,29.91,WNW,296,1.0,3.0,77,0.00,,SKC,0.00,VWS V14.01,2017-12-12 05:28:00,
2017-12-12 00:33:00,42.7,36.0,29.91,WNW,290,2.0,3.0,77,0.00,,SKC,0.00,VWS V14.01,2017-12-12 05:33:00,
2017-12-12 00:35:00,42.7,36.3,29.91,WNW,290,0.0,3.0,78,0.00,,SKC,0.00,VWS V14.01,2017-12-12 05:35:00,
2017-12-12 00:40:00,42.5,36.1,29.91,NW,322,0.0,4.0,78,0.00,,SKC,0.00,VWS V14.01,2017-12-12 05:40:00,
2017-12-12 00:45:00,42.4,36.0,29.91,NW,323,1.0,4.0,78,0.00,,SKC,0.00,VWS V14.01,2017-12-12 05:45:00,
2017-12-12 00:55:00,42.3,35.9,29.90,NW,324,0.0,4.0,78,0.00,,SKC,0.00,VWS V14.01,2017-12-12 05:55:00,
2017-12-12 01:00:00,42.1,36.1,29.90,NW,324,1.0,4.0,79,0.00,,SKC,0.00,VWS V14.01,2017-12-12 06:00:00,
2017-12-12 01:05:00,41.9,35.9,29.90,NW,323,0.0,4.0,79,0.00,,SKC,0.00,VWS V14.01,2017-12-12 06:05:00,
2017-12-12 01:10:00,41.8,36.1,29.89,NW,323,0.0,4.0,80,0.00,,SKC,0.00,VWS V14.01,2017-12-12 06:10:00,
2017-12-12 01:15:00,41.5,35.8,29.89,NW,324,0.0,4.0,80,0.00,,SKC,0.00,VWS V14.01,2017-12-12 06:15:00,
2017-12-12 01:25:00,41.1,35.7,29.88,NW,323,0.0,4.0,81,0.00,,SKC,0.00,VWS V14.01,2017-12-12 06:25:00,
2017-12-12 01:30:00,41.0,35.6,29.88,NW,324,0.0,4.0,81,0.00,,SKC,0.00,VWS V14.01,2017-12-12 06:30:00,
2017-12-12 01:35:00,40.9,35.5,29.88,WNW,294,0.0,4.0,81,0.00,,SKC,0.00,VWS V14.01,2017-12-12 06:35:00,
2017-12-12 01:45:00,40.6,35.5,29.87,WNW,294,0.0,4.0,82,0.00,,SKC,0.00,VWS V14.01,2017-12-12 06:45:00,
2017-12-12 02:00:00,40.3,35.6,29.87,WNW,294,0.0,0.0,83,0.00,,SKC,0.00,VWS V14.01,2017-12-12 07:00:00,
2017-12-12 02:05:00,40.1,35.4,29.86,WNW,294,0.0,0.0,83,0.00,,SKC,0.00,VWS V14.01,2017-12-12 07:05:00,
2017-12-12 02:11:00,40.0,35.3,29.86,WNW,294,1.0,1.0,83,0.00,,SKC,0.00,VWS V14.01,2017-12-12 07:11:00,
2017-12-12 02:16:00,40.0,35.9,29.86,WNW,294,1.0,3.0,85,0.00,,SKC,0.00,VWS V14.01,2017-12-12 07:16:00,
2017-12-12 02:21:00,39.9,36.1,29.86,WNW,294,0.0,3.0,86,0.00,,SKC,0.00,VWS V14.01,2017-12-12 07:21:00,
2017-12-12 02:31:00,40.0,36.5,29.85,NW,311,1.0,3.0,87,0.00,,SKC,0.00,VWS V14.01,2017-12-12 07:31:00,
2017-12-12 02:36:00,40.2,36.7,29.85,NW,315,1.0,4.0,87,0.00,,SKC,0.00,VWS V14.01,2017-12-12 07:36:00,
2017-12-12 02:41:00,40.5,36.9,29.84,North,350,0.0,4.0,87,0.00,,SKC,0.00,VWS V14.01,2017-12-12 07:41:00,
2017-12-12 02:56:00,41.5,37.3,29.84,NW,323,3.0,4.0,85,0.00,,SKC,0.00,VWS V14.01,2017-12-12 07:56:00,
2017-12-12 03:21:00,42.9,37.5,29.83,West,279,2.0,6.0,81,0.00,,SKC,0.00,VWS V14.01,2017-12-12 08:21:00,
2017-12-12 03:36:00,43.3,37.6,29.83,NW,317,4.0,6.0,80,0.00,,SKC,0.00,VWS V14.01,2017-12-12 08:36:00,
2017-12-12 04:01:00,43.7,37.6,29.82,NW,305,3.0,4.0,79,0.00,,SKC,0.00,VWS V14.01,2017-12-12 09:01:00,
2017-12-12 04:06:00,43.6,37.5,29.82,WNW,292,2.0,5.0,79,0.00,,SKC,0.00,VWS V14.01,2017-12-12 09:06:00,
2017-12-12 04:16:00,43.5,37.4,29.82,West,275,2.0,5.0,79,0.00,,SKC,0.00,VWS V14.01,2017-12-12 09:16:00,
2017-12-12 04:21:00,43.4,37.3,29.82,West,265,2.0,5.0,79,0.00,,SKC,0.00,VWS V14.01,2017-12-12 09:21:00,
2017-12-12 04:26:00,43.3,37.2,29.81,West,279,0.0,5.0,79,0.00,,SKC,0.00,VWS V14.01,2017-12-12 09:26:00,
2017-12-12 04:31:00,43.3,37.2,29.81,WNW,295,1.0,5.0,79,0.00,,SKC,0.00,VWS V14.01,2017-12-12 09:31:00,
2017-12-12 04:41:00,43.3,37.2,29.81,West,279,2.0,6.0,79,0.00,,SKC,0.00,VWS V14.01,2017-12-12 09:41:00,
2017-12-12 04:46:00,43.3,37.2,29.81,WNW,294,2.0,6.0,79,0.00,,SKC,0.00,VWS V14.01,2017-12-12 09:46:00,